createdAt,value
2019-05-07T00:03:03.317Z,13.40
2019-05-07T00:06:12.351Z,13.13
2019-05-07T00:09:20.002Z,12.97
2019-05-07T00:12:27.638Z,12.90
2019-05-07T00:15:35.241Z,12.40
2019-05-07T00:18:43.004Z,12.77
2019-05-07T00:21:52.612Z,12.40
2019-05-07T00:24:59.656Z,13.10
2019-05-07T00:28:07.200Z,12.37
2019-05-07T00:31:14.711Z,13.30
2019-05-07T00:34:24.220Z,11.50
2019-05-07T00:37:46.338Z,12.53
2019-05-07T00:41:12.344Z,11.00
2019-05-07T00:44:22.069Z,9.87
2019-05-07T00:47:29.491Z,11.50
2019-05-07T00:50:38.607Z,11.17
2019-05-07T00:53:46.245Z,12.17
2019-05-07T00:56:53.742Z,12.00
2019-05-07T01:00:02.228Z,13.20
2019-05-07T01:03:12.616Z,11.33
2019-05-07T01:06:19.328Z,13.50
2019-05-07T01:09:26.828Z,11.43
2019-05-07T01:12:34.267Z,11.73
2019-05-07T01:15:43.105Z,11.50
2019-05-07T01:18:50.640Z,12.27
2019-05-07T01:21:58.190Z,10.73
2019-05-07T01:25:07.222Z,11.33
2019-05-07T01:28:14.954Z,10.37
2019-05-07T01:31:22.513Z,10.07
2019-05-07T01:34:38.106Z,11.53
2019-05-07T01:37:45.613Z,10.43
2019-05-07T01:40:53.128Z,10.53
2019-05-07T01:44:02.070Z,10.80
2019-05-07T01:47:09.636Z,10.80
2019-05-07T01:50:17.110Z,9.80
2019-05-07T01:53:24.610Z,9.23
2019-05-07T01:56:33.144Z,9.00
2019-05-07T01:59:42.627Z,11.37
2019-05-07T02:02:55.007Z,9.50
2019-05-07T02:06:08.076Z,9.53
2019-05-07T02:09:30.181Z,11.27
2019-05-07T02:12:39.290Z,10.87
2019-05-07T02:16:00.294Z,12.40
2019-05-07T02:18:58.866Z,11.53
2019-05-07T02:22:06.389Z,12.13
2019-05-07T02:25:14.408Z,12.43
2019-05-07T02:28:22.320Z,11.57
2019-05-07T02:31:33.226Z,11.77
2019-05-07T02:34:39.146Z,13.00
2019-05-07T02:37:56.852Z,14.83
2019-05-07T02:41:17.514Z,13.30
2019-05-07T02:44:25.308Z,15.77
2019-05-07T02:47:33.662Z,14.07
2019-05-07T02:50:53.839Z,14.17
2019-05-07T02:54:13.212Z,13.40
2019-05-07T02:57:19.158Z,12.23
2019-05-07T03:00:26.609Z,11.70
2019-05-07T03:03:34.256Z,12.83
2019-05-07T03:06:44.191Z,13.70
2019-05-07T03:09:53.931Z,13.80
2019-05-07T03:13:03.054Z,14.43
2019-05-07T03:16:12.826Z,17.80
2019-05-07T03:19:19.507Z,20.90
2019-05-07T03:22:28.040Z,24.83
2019-05-07T03:25:54.431Z,21.80
2019-05-07T03:29:05.308Z,16.37
2019-05-07T03:32:39.886Z,21.20
2019-05-07T03:35:55.624Z,19.57
2019-05-07T03:38:58.938Z,25.03
2019-05-07T03:42:06.461Z,19.40
2019-05-07T03:45:22.993Z,16.63
2019-05-07T03:48:33.298Z,15.40
2019-05-07T03:51:40.197Z,15.30
2019-05-07T03:54:47.667Z,15.13
2019-05-07T03:57:55.225Z,16.80
2019-05-07T04:01:04.250Z,17.00
2019-05-07T04:04:13.174Z,18.63
2019-05-07T04:07:23.224Z,16.33
2019-05-07T04:10:30.038Z,15.60
2019-05-07T04:13:37.536Z,14.10
2019-05-07T04:16:45.090Z,21.83
2019-05-07T04:19:53.263Z,18.90
2019-05-07T04:23:03.975Z,14.30
2019-05-07T04:26:28.868Z,23.90
2019-05-07T04:29:36.450Z,22.27
2019-05-07T04:32:48.634Z,16.87
2019-05-07T04:36:14.996Z,18.10
2019-05-07T04:39:23.237Z,16.50
2019-05-07T04:42:33.431Z,17.37
2019-05-07T04:45:42.998Z,18.90
2019-05-07T04:48:49.340Z,17.00
2019-05-07T04:52:15.232Z,15.10
2019-05-07T04:55:23.230Z,14.90
2019-05-07T04:58:33.214Z,14.17
2019-05-07T05:01:44.218Z,13.67
2019-05-07T05:04:53.118Z,14.07
2019-05-07T05:08:00.807Z,12.83
2019-05-07T05:11:08.680Z,15.03
2019-05-07T05:14:16.325Z,12.73
2019-05-07T05:17:23.800Z,14.23
2019-05-07T05:20:43.615Z,14.90
2019-05-07T05:24:01.871Z,14.90
2019-05-07T05:27:09.572Z,12.20
2019-05-07T05:30:23.346Z,13.00
2019-05-07T05:33:32.400Z,15.40
2019-05-07T05:36:42.293Z,14.30
2019-05-07T05:40:01.902Z,14.87
2019-05-07T05:43:04.656Z,13.73
2019-05-07T05:46:12.250Z,15.30
2019-05-07T05:49:19.723Z,16.57
2019-05-07T05:52:39.844Z,16.37
2019-05-07T05:55:47.861Z,15.37
2019-05-07T05:59:05.615Z,17.30
2019-05-07T06:02:38.015Z,17.03
2019-05-07T06:05:55.341Z,12.33
2019-05-07T06:09:22.008Z,18.03
2019-05-07T06:12:44.365Z,12.00
2019-05-07T06:15:59.922Z,11.97
2019-05-07T06:19:13.022Z,14.77
2019-05-07T06:22:29.227Z,12.63
2019-05-07T06:25:36.726Z,11.53
2019-05-07T06:28:44.191Z,12.10
2019-05-07T06:32:04.617Z,11.50
2019-05-07T06:35:12.530Z,15.60
2019-05-07T06:38:21.985Z,11.80
2019-05-07T06:41:47.217Z,10.37
2019-05-07T06:45:05.427Z,10.43
2019-05-07T06:48:13.182Z,12.80
2019-05-07T06:51:22.089Z,11.40
2019-05-07T06:54:31.966Z,12.53
2019-05-07T06:57:38.855Z,11.50
2019-05-07T07:01:08.197Z,11.70
2019-05-07T07:04:28.552Z,9.70
2019-05-07T07:07:58.008Z,9.33
2019-05-07T07:11:24.313Z,8.90
2019-05-07T07:14:33.210Z,11.90
2019-05-07T07:17:42.019Z,9.27
2019-05-07T07:20:49.546Z,8.80
2019-05-07T07:23:56.955Z,9.50
2019-05-07T07:27:04.423Z,8.07
2019-05-07T07:30:24.177Z,10.20
2019-05-07T07:33:33.656Z,7.20
2019-05-07T07:37:05.998Z,6.60
2019-05-07T07:40:32.683Z,6.40
2019-05-07T07:43:41.916Z,6.10
2019-05-07T07:46:49.560Z,5.60
2019-05-07T07:49:57.100Z,5.20
2019-05-07T07:53:04.529Z,5.77
2019-05-07T07:56:29.451Z,6.63
2019-05-07T08:00:02.656Z,4.13
2019-05-07T08:03:13.347Z,5.00
2019-05-07T08:06:22.517Z,5.07
2019-05-07T08:09:32.309Z,9.20
2019-05-07T08:12:39.202Z,5.77
2019-05-07T08:15:46.610Z,6.20
2019-05-07T08:18:54.057Z,7.20
2019-05-07T08:22:02.850Z,6.80
2019-05-07T08:25:12.490Z,8.63
2019-05-07T08:28:23.154Z,5.87
2019-05-07T08:31:48.781Z,5.90
2019-05-07T08:35:17.867Z,5.97
2019-05-07T08:38:25.502Z,7.07
2019-05-07T08:41:33.158Z,5.50
2019-05-07T08:44:46.803Z,5.93
2019-05-07T08:47:55.681Z,6.17
2019-05-07T08:51:03.233Z,5.40
2019-05-07T08:54:12.330Z,8.67
2019-05-07T08:57:19.963Z,6.57
2019-05-07T09:00:27.785Z,6.10
2019-05-07T09:03:43.184Z,6.87
2019-05-07T09:06:51.946Z,6.10
2019-05-07T09:09:59.690Z,15.60
2019-05-07T09:13:07.287Z,7.10
2019-05-07T09:16:16.083Z,13.23
2019-05-07T09:19:23.522Z,6.70
2019-05-07T09:22:32.323Z,14.03
2019-05-07T09:25:48.261Z,19.47
2019-05-07T09:29:04.609Z,20.80
2019-05-07T09:32:32.713Z,6.73
2019-05-07T09:35:52.872Z,5.80
2019-05-07T09:39:02.722Z,8.20
2019-05-07T09:42:12.172Z,6.13
2019-05-07T09:45:22.451Z,6.00
2019-05-07T09:48:31.157Z,5.90
2019-05-07T09:51:38.652Z,9.87
2019-05-07T09:54:46.319Z,9.73
2019-05-07T09:57:53.787Z,6.27
2019-05-07T10:01:02.085Z,7.00
2019-05-07T10:04:09.726Z,9.97
2019-05-07T10:07:17.215Z,7.97
2019-05-07T10:10:24.735Z,12.67
2019-05-07T10:13:36.923Z,11.27
2019-05-07T10:17:03.268Z,8.37
2019-05-07T10:20:21.759Z,8.87
2019-05-07T10:23:22.899Z,9.50
2019-05-07T10:26:32.110Z,10.10
2019-05-07T10:29:39.811Z,10.30
2019-05-07T10:32:47.369Z,8.30
2019-05-07T10:35:54.807Z,9.10
2019-05-07T10:39:02.580Z,10.37
2019-05-07T10:42:12.330Z,8.90
2019-05-07T10:45:44.537Z,9.07
2019-05-07T10:49:12.343Z,8.20
2019-05-07T10:52:19.998Z,9.30
2019-05-07T10:55:27.465Z,9.87
2019-05-07T10:58:35.020Z,9.00
2019-05-07T11:02:04.401Z,9.20
2019-05-07T11:05:12.995Z,8.20
2019-05-07T11:08:22.146Z,8.13
2019-05-07T11:11:31.759Z,8.57
2019-05-07T11:14:38.832Z,10.73
2019-05-07T11:18:05.077Z,9.50
2019-05-07T11:21:12.697Z,11.90
2019-05-07T11:24:20.181Z,8.07
2019-05-07T11:27:27.620Z,7.60
2019-05-07T11:30:35.063Z,10.20
2019-05-07T11:33:43.801Z,11.57
2019-05-07T11:36:52.381Z,8.20
2019-05-07T11:40:00.034Z,7.23
2019-05-07T11:43:22.117Z,9.13
2019-05-07T11:46:38.983Z,7.40
2019-05-07T11:50:04.387Z,8.77
2019-05-07T11:53:12.724Z,7.13
2019-05-07T11:56:21.935Z,6.57
2019-05-07T11:59:29.428Z,6.60
2019-05-07T12:02:36.957Z,4.60
2019-05-07T12:05:44.401Z,6.53
2019-05-07T12:08:52.274Z,5.60
2019-05-07T12:11:59.817Z,4.50
2019-05-07T12:15:25.064Z,7.27
2019-05-07T12:18:32.568Z,7.20
2019-05-07T12:21:42.037Z,6.60
2019-05-07T12:24:49.319Z,18.37
2019-05-07T12:27:56.747Z,6.37
2019-05-07T12:31:22.939Z,7.90
2019-05-07T12:34:34.569Z,5.97
2019-05-07T12:37:42.771Z,5.67
2019-05-07T12:40:52.394Z,6.00
2019-05-07T12:44:02.619Z,5.90
2019-05-07T12:47:12.037Z,8.33
2019-05-07T12:50:21.857Z,6.60
2019-05-07T12:53:43.963Z,13.30
2019-05-07T12:56:52.008Z,8.93
2019-05-07T13:00:18.349Z,8.80
2019-05-07T13:03:44.556Z,8.07
2019-05-07T13:06:58.167Z,6.53
2019-05-07T13:10:08.469Z,9.10
2019-05-07T13:13:15.358Z,8.60
2019-05-07T13:16:22.801Z,8.60
2019-05-07T13:19:30.284Z,8.67
2019-05-07T13:22:38.746Z,9.10
2019-05-07T13:25:46.194Z,8.67
2019-05-07T13:28:53.654Z,7.50
2019-05-07T13:32:03.355Z,8.30
2019-05-07T13:35:11.852Z,7.30
2019-05-07T13:38:36.967Z,7.90
2019-05-07T13:42:02.048Z,9.40
2019-05-07T13:45:22.517Z,7.60
2019-05-07T13:48:31.729Z,7.40
2019-05-07T13:51:41.656Z,6.33
2019-05-07T13:54:48.791Z,9.80
2019-05-07T13:57:56.477Z,7.47
2019-05-07T14:01:22.853Z,8.23
2019-05-07T14:04:30.107Z,6.67
2019-05-07T14:07:41.560Z,4.90
2019-05-07T14:10:48.761Z,5.50
2019-05-07T14:13:56.211Z,12.03
2019-05-07T14:17:03.831Z,11.20
2019-05-07T14:20:12.906Z,5.27
2019-05-07T14:23:21.758Z,5.30
2019-05-07T14:26:29.306Z,6.60
2019-05-07T14:29:36.697Z,7.20
2019-05-07T14:32:57.503Z,8.03
2019-05-07T14:36:11.953Z,14.70
2019-05-07T14:39:19.631Z,11.17
2019-05-07T14:42:33.122Z,7.27
2019-05-07T14:45:42.090Z,6.97
2019-05-07T14:48:49.729Z,7.43
2019-05-07T14:51:57.343Z,8.83
2019-05-07T14:55:05.390Z,8.20
2019-05-07T14:58:14.229Z,6.77
2019-05-07T15:01:22.428Z,5.30
2019-05-07T15:04:30.011Z,5.47
2019-05-07T15:07:37.964Z,5.40
2019-05-07T15:10:45.403Z,5.30
2019-05-07T15:13:53.037Z,8.73
2019-05-07T15:17:07.500Z,6.50
2019-05-07T15:20:15.589Z,6.47
2019-05-07T15:23:30.398Z,8.97
2019-05-07T15:26:37.912Z,7.43
2019-05-07T15:29:45.457Z,8.17
2019-05-07T15:32:53.240Z,8.53
2019-05-07T15:36:02.838Z,9.70
2019-05-07T15:39:10.017Z,8.87
2019-05-07T15:42:18.120Z,7.43
2019-05-07T15:45:25.635Z,7.50
2019-05-07T15:48:33.338Z,10.90
2019-05-07T15:51:41.916Z,9.73
2019-05-07T15:54:49.564Z,18.00
2019-05-07T15:57:57.427Z,8.67
2019-05-07T16:01:04.887Z,7.97
2019-05-07T16:04:20.018Z,7.70
2019-05-07T16:07:22.512Z,9.33
2019-05-07T16:10:32.172Z,8.80
2019-05-07T16:13:42.159Z,30.53
2019-05-07T16:16:51.857Z,11.43
2019-05-07T16:19:59.636Z,8.67
2019-05-07T16:23:14.944Z,11.40
2019-05-07T16:26:16.424Z,11.20
2019-05-07T16:29:23.899Z,12.10
2019-05-07T16:32:32.909Z,11.37
2019-05-07T16:35:42.313Z,11.93
2019-05-07T16:38:49.509Z,14.03
2019-05-07T16:41:56.959Z,13.10
2019-05-07T16:45:04.990Z,12.73
2019-05-07T16:48:12.585Z,13.10
2019-05-07T16:51:22.326Z,12.87
2019-05-07T16:54:29.964Z,13.00
2019-05-07T16:57:56.293Z,12.73
2019-05-07T17:01:06.939Z,14.07
2019-05-07T17:04:14.418Z,14.80
2019-05-07T17:07:22.423Z,15.10
2019-05-07T17:10:31.814Z,16.33
2019-05-07T17:13:39.548Z,15.37
2019-05-07T17:16:47.095Z,14.43
2019-05-07T17:19:54.702Z,12.90
2019-05-07T17:23:03.027Z,9.93
2019-05-07T17:26:11.730Z,8.87
2019-05-07T17:29:19.292Z,9.30
2019-05-07T17:32:26.760Z,17.37
2019-05-07T17:35:34.599Z,28.67
2019-05-07T17:38:42.864Z,30.83
2019-05-07T17:41:51.850Z,20.40
2019-05-07T17:44:59.493Z,20.00
2019-05-07T17:48:07.182Z,22.43
2019-05-07T17:51:33.437Z,20.17
2019-05-07T17:54:42.391Z,12.20
2019-05-07T17:57:51.894Z,12.70
2019-05-07T18:01:01.784Z,13.73
2019-05-07T18:04:09.677Z,30.63
2019-05-07T18:07:17.491Z,21.40
2019-05-07T18:10:25.097Z,18.60
2019-05-07T18:13:33.808Z,16.17
2019-05-07T18:17:05.511Z,23.00
2019-05-07T18:20:13.060Z,23.97
2019-05-07T18:23:22.243Z,25.40
2019-05-07T18:26:33.709Z,26.97
2019-05-07T18:29:42.725Z,25.53
2019-05-07T18:32:55.272Z,26.50
2019-05-07T18:36:02.927Z,29.77
2019-05-07T18:39:12.393Z,31.93
2019-05-07T18:42:22.015Z,39.80
2019-05-07T18:45:28.874Z,42.30
2019-05-07T18:48:36.468Z,37.23
2019-05-07T18:51:44.121Z,30.70
2019-05-07T18:54:52.053Z,36.67
2019-05-07T18:57:59.995Z,35.70
2019-05-07T19:01:10.868Z,33.90
2019-05-07T19:04:18.364Z,36.57
2019-05-07T19:07:25.885Z,34.67
2019-05-07T19:10:33.375Z,36.33
2019-05-07T19:13:41.968Z,35.63
2019-05-07T19:16:49.820Z,36.20
2019-05-07T19:19:57.416Z,35.07
2019-05-07T19:23:04.860Z,35.10
2019-05-07T19:26:13.173Z,37.47
2019-05-07T19:29:23.363Z,38.70
2019-05-07T19:32:32.237Z,43.90
2019-05-07T19:35:41.765Z,43.80
2019-05-07T19:38:49.235Z,42.97
2019-05-07T19:41:56.695Z,55.90
2019-05-07T19:45:04.205Z,64.30
2019-05-07T19:48:12.495Z,77.20
2019-05-07T19:51:20.088Z,76.90
2019-05-07T19:54:27.579Z,62.73
2019-05-07T19:57:42.532Z,59.53
2019-05-07T20:00:49.383Z,59.57
2019-05-07T20:03:56.890Z,61.17
2019-05-07T20:07:04.542Z,95.43
2019-05-07T20:10:14.226Z,93.10
2019-05-07T20:13:21.752Z,93.63
2019-05-07T20:16:29.267Z,101.80
2019-05-07T20:19:38.027Z,114.47
2019-05-07T20:22:45.535Z,122.37
2019-05-07T20:25:53.051Z,117.73
2019-05-07T20:29:02.874Z,114.93
2019-05-07T20:32:10.215Z,117.50
2019-05-07T20:35:17.848Z,127.60
2019-05-07T20:38:25.387Z,118.10
2019-05-07T20:41:33.206Z,112.67
2019-05-07T20:44:42.614Z,119.47
2019-05-07T20:47:50.201Z,120.43
2019-05-07T20:50:57.727Z,122.90
2019-05-07T20:54:14.271Z,121.97
2019-05-07T20:57:25.424Z,125.73
2019-05-07T21:00:32.909Z,135.47
2019-05-07T21:03:42.684Z,131.90
2019-05-07T21:06:49.722Z,133.43
2019-05-07T21:09:57.269Z,136.63
2019-05-07T21:13:04.874Z,138.70
2019-05-07T21:16:12.750Z,143.73
2019-05-07T21:19:22.354Z,141.87
2019-05-07T21:22:31.848Z,148.23
2019-05-07T21:25:45.521Z,155.73
2019-05-07T21:28:48.334Z,156.90
2019-05-07T21:31:55.806Z,153.63
2019-05-07T21:35:03.236Z,152.27
2019-05-07T21:38:12.671Z,136.10
2019-05-07T21:41:22.367Z,130.90
2019-05-07T21:44:28.964Z,134.87
2019-05-07T21:47:36.521Z,138.13
2019-05-07T21:50:44.004Z,142.83
2019-05-07T21:53:58.702Z,153.50
2019-05-07T21:57:32.933Z,164.40
2019-05-07T22:01:08.044Z,146.07
2019-05-07T22:04:17.452Z,148.63
2019-05-07T22:07:25.112Z,163.73
2019-05-07T22:10:34.070Z,151.00
2019-05-07T22:13:43.481Z,141.67
2019-05-07T22:16:54.490Z,121.43
2019-05-07T22:20:03.015Z,99.37
2019-05-07T22:23:10.754Z,120.30
2019-05-07T22:26:23.180Z,89.40
2019-05-07T22:29:28.642Z,103.67
2019-05-07T22:33:02.490Z,92.60
2019-05-07T22:36:12.540Z,89.70
2019-05-07T22:39:22.073Z,95.07
2019-05-07T22:42:32.713Z,95.07
2019-05-07T22:45:40.306Z,71.40
2019-05-07T22:48:48.624Z,46.50
2019-05-07T22:51:56.150Z,50.17
2019-05-07T22:55:03.680Z,48.67
2019-05-07T22:58:26.546Z,52.60
2019-05-07T23:01:34.066Z,46.43
2019-05-07T23:04:43.213Z,50.63
2019-05-07T23:07:52.641Z,54.93
2019-05-07T23:10:59.832Z,56.30
2019-05-07T23:14:07.318Z,56.93
2019-05-07T23:17:16.034Z,54.50
2019-05-07T23:20:24.461Z,56.27
2019-05-07T23:23:32.608Z,59.50
2019-05-07T23:26:48.169Z,53.87
2019-05-07T23:29:49.177Z,46.00
2019-05-07T23:32:56.641Z,45.83
2019-05-07T23:36:04.287Z,44.70
2019-05-07T23:39:13.307Z,40.63
2019-05-07T23:42:24.611Z,42.80
2019-05-07T23:45:32.106Z,42.73
2019-05-07T23:48:40.031Z,40.33
2019-05-07T23:51:47.548Z,41.73
2019-05-07T23:54:55.127Z,38.73
2019-05-07T23:58:03.083Z,35.33
